createdAt,value
2023-02-24T00:01:56.485Z,7.50
2023-02-24T00:04:23.221Z,7.40
2023-02-24T00:06:49.974Z,7.50
2023-02-24T00:09:26.235Z,7.40
2023-02-24T00:12:02.176Z,7.40
2023-02-24T00:14:32.230Z,7.40
2023-02-24T00:16:59.537Z,7.40
2023-02-24T00:19:32.633Z,7.40
2023-02-24T00:22:00.214Z,7.40
2023-02-24T00:24:27.529Z,7.30
2023-02-24T00:26:59.843Z,7.40
2023-02-24T00:29:28.907Z,7.40
2023-02-24T00:32:01.246Z,7.30
2023-02-24T00:34:34.047Z,7.30
2023-02-24T00:37:01.649Z,7.30
2023-02-24T00:39:34.142Z,7.30
2023-02-24T00:42:06.149Z,7.30
2023-02-24T00:44:38.459Z,7.30
2023-02-24T00:47:06.932Z,7.30
2023-02-24T00:49:44.469Z,7.30
2023-02-24T00:52:19.406Z,7.30
2023-02-24T00:54:48.318Z,7.20
2023-02-24T00:57:18.490Z,7.20
2023-02-24T00:59:47.733Z,7.20
2023-02-24T01:02:15.678Z,7.20
2023-02-24T01:04:44.410Z,7.30
2023-02-24T01:07:11.682Z,7.30
2023-02-24T01:09:40.208Z,7.30
2023-02-24T01:12:38.590Z,7.30
2023-02-24T01:15:10.082Z,7.30
2023-02-24T01:17:37.880Z,7.20
2023-02-24T01:20:16.048Z,7.30
2023-02-24T01:22:44.551Z,7.30
2023-02-24T01:25:11.422Z,7.20
2023-02-24T01:27:38.722Z,7.20
2023-02-24T01:30:06.914Z,7.20
2023-02-24T01:32:33.700Z,7.20
2023-02-24T01:35:00.720Z,7.20
2023-02-24T01:37:29.823Z,7.20
2023-02-24T01:39:56.483Z,7.20
2023-02-24T01:42:23.910Z,7.20
2023-02-24T01:44:51.911Z,7.20
2023-02-24T01:47:21.856Z,7.20
2023-02-24T01:49:52.802Z,7.20
2023-02-24T01:52:30.291Z,7.10
2023-02-24T01:55:06.413Z,7.10
2023-02-24T01:57:35.648Z,7.10
2023-02-24T02:00:11.869Z,7.10
2023-02-24T02:02:42.316Z,7.10
2023-02-24T02:05:10.068Z,7.20
2023-02-24T02:07:40.395Z,7.10
2023-02-24T02:10:09.095Z,7.20
2023-02-24T02:12:45.605Z,7.00
2023-02-24T02:15:15.477Z,7.00
2023-02-24T02:18:20.838Z,7.00
2023-02-24T02:21:11.981Z,7.00
2023-02-24T02:24:06.694Z,7.10
2023-02-24T02:27:11.493Z,7.10
2023-02-24T02:29:56.315Z,7.00
2023-02-24T02:32:34.722Z,7.10
2023-02-24T02:35:02.950Z,7.10
2023-02-24T02:37:41.256Z,7.10
2023-02-24T02:40:20.072Z,7.10
2023-02-24T02:42:59.115Z,7.10
2023-02-24T02:45:56.007Z,7.10
2023-02-24T02:48:36.648Z,7.10
2023-02-24T02:51:11.182Z,7.10
2023-02-24T02:53:57.024Z,7.20
2023-02-24T02:56:40.518Z,7.10
2023-02-24T02:59:12.691Z,7.20
2023-02-24T03:01:43.835Z,7.20
2023-02-24T03:04:17.045Z,7.30
2023-02-24T03:06:49.389Z,7.30
2023-02-24T03:09:39.660Z,7.30
2023-02-24T03:12:11.000Z,7.30
2023-02-24T03:14:51.176Z,7.30
2023-02-24T03:17:28.016Z,7.30
2023-02-24T03:20:01.446Z,7.30
2023-02-24T03:22:37.571Z,7.30
2023-02-24T03:25:06.218Z,7.20
2023-02-24T03:27:57.508Z,7.20
2023-02-24T03:30:36.138Z,7.20
2023-02-24T03:33:09.878Z,7.20
2023-02-24T03:35:40.254Z,7.10
2023-02-24T03:38:10.152Z,7.10
2023-02-24T03:40:38.999Z,7.10
2023-02-24T03:43:26.078Z,7.20
2023-02-24T03:45:54.633Z,7.10
2023-02-24T03:48:22.815Z,7.10
2023-02-24T03:50:49.652Z,7.10
2023-02-24T03:53:31.141Z,7.20
2023-02-24T03:56:10.913Z,7.20
2023-02-24T03:58:48.213Z,7.10
2023-02-24T04:01:31.045Z,7.10
2023-02-24T04:04:07.305Z,7.10
2023-02-24T04:06:45.940Z,7.10
2023-02-24T04:09:26.627Z,7.10
2023-02-24T04:12:13.749Z,7.10
2023-02-24T04:15:04.571Z,7.10
2023-02-24T04:17:46.244Z,7.10
2023-02-24T04:20:16.963Z,7.10
2023-02-24T04:22:51.599Z,7.10
2023-02-24T04:25:24.458Z,7.10
2023-02-24T04:27:58.284Z,7.10
2023-02-24T04:30:31.720Z,7.10
2023-02-24T04:32:58.532Z,7.10
2023-02-24T04:35:29.027Z,7.10
2023-02-24T04:37:56.043Z,7.10
2023-02-24T04:40:23.418Z,7.10
2023-02-24T04:42:52.057Z,7.10
2023-02-24T04:45:30.624Z,7.10
2023-02-24T04:48:02.739Z,7.10
2023-02-24T04:50:35.479Z,7.10
2023-02-24T04:53:09.683Z,7.10
2023-02-24T04:55:42.371Z,7.10
2023-02-24T04:58:14.479Z,7.10
2023-02-24T05:00:42.003Z,7.10
2023-02-24T05:03:11.752Z,7.10
2023-02-24T05:05:38.576Z,7.10
2023-02-24T05:08:10.588Z,7.10
2023-02-24T05:10:41.179Z,7.10
2023-02-24T05:13:09.230Z,7.10
2023-02-24T05:15:41.718Z,7.10
2023-02-24T05:18:14.061Z,7.10
2023-02-24T05:21:05.142Z,7.10
2023-02-24T05:23:35.254Z,7.10
2023-02-24T05:26:09.043Z,7.10
2023-02-24T05:28:40.669Z,7.10
2023-02-24T05:31:15.058Z,7.10
2023-02-24T05:33:44.305Z,7.10
2023-02-24T05:36:19.664Z,7.00
2023-02-24T05:38:56.532Z,7.10
2023-02-24T05:41:32.342Z,7.10
2023-02-24T05:44:02.360Z,7.10
2023-02-24T05:46:32.566Z,7.10
2023-02-24T05:49:02.531Z,7.10
2023-02-24T05:51:35.877Z,7.10
2023-02-24T05:54:04.658Z,7.10
2023-02-24T05:56:36.047Z,7.10
2023-02-24T05:59:06.610Z,7.00
2023-02-24T06:01:35.414Z,7.00
2023-02-24T06:04:08.303Z,7.00
2023-02-24T06:06:37.288Z,7.00
2023-02-24T06:09:10.857Z,7.10
2023-02-24T06:11:40.585Z,7.10
2023-02-24T06:14:08.257Z,7.10
2023-02-24T06:16:37.520Z,7.10
2023-02-24T06:19:10.755Z,7.10
2023-02-24T06:21:41.965Z,7.10
2023-02-24T06:24:15.703Z,7.10
2023-02-24T06:26:45.918Z,7.10
2023-02-24T06:29:17.864Z,7.10
2023-02-24T06:31:45.317Z,7.10
2023-02-24T06:34:14.083Z,7.10
2023-02-24T06:36:41.240Z,7.10
2023-02-24T06:39:08.230Z,7.10
2023-02-24T06:41:38.492Z,7.10
2023-02-24T06:44:05.378Z,7.10
2023-02-24T06:46:32.178Z,7.10
2023-02-24T06:48:58.914Z,7.10
2023-02-24T06:51:30.141Z,7.10
2023-02-24T06:53:57.585Z,7.10
2023-02-24T06:56:24.522Z,7.10
2023-02-24T06:58:53.225Z,7.10
2023-02-24T07:01:26.277Z,7.10
2023-02-24T07:04:17.819Z,7.10
2023-02-24T07:06:49.473Z,7.10
2023-02-24T07:09:18.851Z,7.10
2023-02-24T07:11:48.623Z,7.10
2023-02-24T07:14:15.607Z,7.10
2023-02-24T07:16:45.770Z,7.10
2023-02-24T07:19:16.056Z,7.10
2023-02-24T07:21:46.738Z,7.10
2023-02-24T07:24:24.740Z,7.10
2023-02-24T07:27:00.647Z,7.10
2023-02-24T07:29:29.485Z,7.20
2023-02-24T07:32:03.769Z,7.20
2023-02-24T07:34:31.466Z,7.20
2023-02-24T07:36:58.399Z,7.20
2023-02-24T07:39:25.700Z,7.20
2023-02-24T07:41:55.248Z,7.20
2023-02-24T07:44:24.286Z,7.30
2023-02-24T07:46:51.622Z,7.20
2023-02-24T07:49:21.449Z,7.30
2023-02-24T07:51:53.085Z,7.30
2023-02-24T07:54:21.331Z,7.30
2023-02-24T07:56:56.700Z,7.30
2023-02-24T07:59:29.885Z,7.30
2023-02-24T08:01:57.721Z,7.20
2023-02-24T08:04:28.541Z,7.30
2023-02-24T08:06:56.565Z,7.20
2023-02-24T08:09:44.442Z,7.20
2023-02-24T08:12:17.944Z,7.20
2023-02-24T08:14:52.552Z,7.30
2023-02-24T08:17:26.507Z,7.30
2023-02-24T08:20:18.155Z,7.30
2023-02-24T08:22:51.998Z,7.30
2023-02-24T08:25:22.673Z,7.30
2023-02-24T08:28:07.349Z,7.30
2023-02-24T08:30:39.047Z,7.30
2023-02-24T08:33:09.274Z,7.30
2023-02-24T08:35:38.776Z,7.30
2023-02-24T08:38:09.844Z,7.30
2023-02-24T08:40:57.224Z,7.30
2023-02-24T08:43:30.154Z,7.30
2023-02-24T08:46:06.020Z,7.30
2023-02-24T08:48:42.087Z,7.30
2023-02-24T08:51:30.629Z,7.30
2023-02-24T08:54:10.798Z,7.30
2023-02-24T08:56:43.388Z,7.40
2023-02-24T08:59:38.194Z,7.40
2023-02-24T09:02:23.148Z,7.40
2023-02-24T09:04:59.525Z,7.40
2023-02-24T09:07:29.676Z,7.40
2023-02-24T09:09:59.828Z,7.50
2023-02-24T09:12:29.471Z,7.60
2023-02-24T09:15:04.511Z,7.60
2023-02-24T09:17:41.148Z,7.60
2023-02-24T09:20:27.324Z,7.70
2023-02-24T09:23:07.244Z,7.80
2023-02-24T09:25:44.957Z,7.70
2023-02-24T09:28:20.396Z,7.80
2023-02-24T09:30:56.403Z,7.70
2023-02-24T09:33:27.481Z,7.80
2023-02-24T09:36:28.110Z,7.70
2023-02-24T09:39:01.268Z,7.70
2023-02-24T09:41:54.587Z,7.70
2023-02-24T09:44:37.336Z,7.80
2023-02-24T09:47:31.111Z,7.70
2023-02-24T09:50:14.067Z,7.70
2023-02-24T09:52:41.513Z,7.80
2023-02-24T09:55:27.163Z,7.80
2023-02-24T09:58:29.230Z,7.90
2023-02-24T10:01:23.364Z,8.00
2023-02-24T10:04:18.516Z,8.00
2023-02-24T10:06:55.299Z,8.10
2023-02-24T10:09:34.617Z,8.10
2023-02-24T10:12:19.542Z,8.10
2023-02-24T10:15:19.743Z,8.10
2023-02-24T10:17:58.166Z,8.20
2023-02-24T10:20:39.240Z,8.20
2023-02-24T10:23:12.796Z,8.30
2023-02-24T10:25:53.692Z,8.30
2023-02-24T10:28:43.885Z,8.40
2023-02-24T10:31:26.138Z,8.40
2023-02-24T10:34:01.405Z,8.40
2023-02-24T10:36:35.349Z,8.40
2023-02-24T10:39:17.052Z,8.40
2023-02-24T10:41:57.190Z,8.40
2023-02-24T10:44:26.816Z,8.50
2023-02-24T10:47:11.229Z,8.50
2023-02-24T10:49:58.459Z,8.60
2023-02-24T10:52:55.113Z,8.60
2023-02-24T10:55:45.049Z,8.60
2023-02-24T10:58:28.511Z,8.60
2023-02-24T11:01:06.705Z,8.60
2023-02-24T11:03:43.698Z,8.60
2023-02-24T11:06:52.721Z,8.60
2023-02-24T11:09:28.106Z,8.60
2023-02-24T11:12:19.467Z,8.60
2023-02-24T11:15:10.084Z,8.60
2023-02-24T11:17:44.883Z,8.60
2023-02-24T11:20:48.628Z,8.60
2023-02-24T11:23:23.710Z,8.60
2023-02-24T11:25:59.711Z,8.60
2023-02-24T11:28:51.095Z,8.50
2023-02-24T11:31:24.956Z,8.60
2023-02-24T11:34:18.118Z,8.60
2023-02-24T11:36:50.821Z,8.60
2023-02-24T11:39:40.544Z,8.60
2023-02-24T11:42:16.544Z,8.60
2023-02-24T11:44:59.828Z,8.60
2023-02-24T11:47:39.737Z,8.60
2023-02-24T11:50:20.735Z,8.60
2023-02-24T11:52:51.207Z,8.60
2023-02-24T11:55:32.645Z,8.60
2023-02-24T11:58:03.199Z,8.60
2023-02-24T12:00:35.381Z,8.70
2023-02-24T12:03:13.003Z,8.70
2023-02-24T12:05:52.723Z,8.80
2023-02-24T12:08:25.890Z,8.80
2023-02-24T12:11:05.684Z,8.80
2023-02-24T12:14:08.758Z,8.80
2023-02-24T12:16:45.707Z,8.90
2023-02-24T12:19:27.837Z,8.90
2023-02-24T12:22:14.524Z,8.90
2023-02-24T12:24:49.906Z,8.90
2023-02-24T12:28:02.061Z,8.90
2023-02-24T12:30:51.536Z,9.00
2023-02-24T12:33:43.785Z,9.10
2023-02-24T12:36:22.253Z,9.20
2023-02-24T12:39:16.202Z,9.20
2023-02-24T12:42:12.196Z,9.30
2023-02-24T12:44:59.017Z,9.20
2023-02-24T12:48:06.477Z,9.20
2023-02-24T12:50:55.233Z,9.20
2023-02-24T12:53:49.524Z,9.20
2023-02-24T12:56:24.238Z,9.20
2023-02-24T12:58:56.738Z,9.20
2023-02-24T13:01:52.374Z,9.20
2023-02-24T13:04:32.244Z,9.20
2023-02-24T13:07:13.178Z,9.20
2023-02-24T13:09:40.258Z,9.20
2023-02-24T13:12:50.539Z,9.20
2023-02-24T13:15:25.312Z,9.30
2023-02-24T13:17:55.774Z,9.40
2023-02-24T13:20:34.721Z,9.40
2023-02-24T13:23:04.849Z,9.40
2023-02-24T13:25:37.442Z,9.50
2023-02-24T13:28:23.293Z,9.50
2023-02-24T13:31:00.195Z,9.50
2023-02-24T13:33:33.570Z,9.50
2023-02-24T13:36:22.801Z,9.50
2023-02-24T13:39:05.884Z,9.50
2023-02-24T13:41:32.578Z,9.50
2023-02-24T13:44:00.556Z,9.50
2023-02-24T13:46:47.863Z,9.50
2023-02-24T13:49:36.899Z,9.50
2023-02-24T13:52:41.812Z,9.50
2023-02-24T13:55:32.035Z,9.60
2023-02-24T13:58:23.481Z,9.60
2023-02-24T14:01:11.834Z,9.60
2023-02-24T14:03:41.426Z,9.70
2023-02-24T14:06:25.207Z,9.60
2023-02-24T14:08:56.199Z,9.60
2023-02-24T14:11:28.243Z,9.60
2023-02-24T14:13:57.247Z,9.60
2023-02-24T14:16:29.122Z,9.60
2023-02-24T14:18:58.357Z,9.60
2023-02-24T14:21:27.818Z,9.60
2023-02-24T14:24:12.746Z,9.60
2023-02-24T14:26:52.082Z,9.60
2023-02-24T14:29:26.274Z,9.60
2023-02-24T14:31:55.062Z,9.50
2023-02-24T14:34:27.864Z,9.50
2023-02-24T14:36:57.767Z,9.60
2023-02-24T14:39:26.530Z,9.50
2023-02-24T14:42:07.080Z,9.50
2023-02-24T14:44:35.619Z,9.50
2023-02-24T14:47:06.594Z,9.50
2023-02-24T14:49:35.510Z,9.60
2023-02-24T14:52:02.182Z,9.60
2023-02-24T14:54:57.196Z,9.60
2023-02-24T14:57:34.687Z,9.50
2023-02-24T15:00:12.006Z,9.50
2023-02-24T15:02:44.671Z,9.50
2023-02-24T15:05:11.977Z,9.50
2023-02-24T15:07:40.126Z,9.60
2023-02-24T15:10:17.414Z,9.60
2023-02-24T15:12:49.093Z,9.60
2023-02-24T15:15:20.760Z,9.60
2023-02-24T15:17:58.602Z,9.60
2023-02-24T15:20:34.730Z,9.50
2023-02-24T15:23:01.988Z,9.50
2023-02-24T15:25:42.134Z,9.50
2023-02-24T15:28:33.064Z,9.50
2023-02-24T15:31:00.251Z,9.50
2023-02-24T15:33:34.828Z,9.50
2023-02-24T15:36:05.753Z,9.40
2023-02-24T15:38:38.037Z,9.40
2023-02-24T15:41:06.603Z,9.40
2023-02-24T15:43:50.290Z,9.40
2023-02-24T15:46:26.174Z,9.40
2023-02-24T15:48:55.463Z,9.40
2023-02-24T15:51:30.704Z,9.30
2023-02-24T15:53:59.298Z,9.30
2023-02-24T15:56:28.004Z,9.40
2023-02-24T15:58:54.750Z,9.30
2023-02-24T16:01:21.534Z,9.30
2023-02-24T16:03:49.624Z,9.20
2023-02-24T16:06:21.976Z,9.30
2023-02-24T16:08:52.612Z,9.20
2023-02-24T16:11:24.653Z,9.20
2023-02-24T16:13:55.174Z,9.20
2023-02-24T16:16:22.764Z,9.20
2023-02-24T16:18:49.899Z,9.20
2023-02-24T16:21:19.044Z,9.20
2023-02-24T16:23:45.838Z,9.10
2023-02-24T16:26:20.790Z,9.10
2023-02-24T16:28:57.760Z,9.00
2023-02-24T16:31:25.878Z,8.90
2023-02-24T16:33:55.336Z,8.90
2023-02-24T16:36:25.315Z,8.80
2023-02-24T16:38:57.021Z,8.80
2023-02-24T16:45:16.363Z,8.70
2023-02-24T16:48:05.000Z,8.70
2023-02-24T16:50:40.266Z,8.60
2023-02-24T16:53:24.919Z,8.60
2023-02-24T16:55:51.985Z,8.60
2023-02-24T16:58:19.855Z,8.60
2023-02-24T17:00:49.989Z,8.50
2023-02-24T17:03:21.361Z,8.60
2023-02-24T17:05:48.366Z,8.50
2023-02-24T17:08:15.982Z,8.50
2023-02-24T17:10:43.945Z,8.50
2023-02-24T17:13:16.689Z,8.50
2023-02-24T17:15:43.592Z,8.50
2023-02-24T17:18:10.722Z,8.40
2023-02-24T17:20:41.994Z,8.30
2023-02-24T17:23:10.911Z,8.30
2023-02-24T17:25:37.674Z,8.30
2023-02-24T17:28:06.264Z,8.30
2023-02-24T17:30:35.210Z,8.20
2023-02-24T17:33:02.762Z,8.20
2023-02-24T17:35:29.985Z,8.20
2023-02-24T17:38:03.935Z,8.20
2023-02-24T17:40:50.354Z,8.20
2023-02-24T17:43:30.730Z,8.10
2023-02-24T17:46:07.317Z,8.10
2023-02-24T17:48:46.753Z,8.10
2023-02-24T17:51:26.067Z,8.10
2023-02-24T17:53:55.492Z,8.10
2023-02-24T17:56:28.362Z,8.10
2023-02-24T17:58:58.865Z,8.00
2023-02-24T18:01:27.515Z,8.00
2023-02-24T18:03:57.424Z,8.00
2023-02-24T18:06:25.433Z,7.90
2023-02-24T18:08:52.684Z,7.90
2023-02-24T18:11:20.430Z,7.80
2023-02-24T18:13:50.991Z,7.80
2023-02-24T18:16:22.300Z,7.70
2023-02-24T18:18:52.976Z,7.80
2023-02-24T18:21:21.790Z,7.70
2023-02-24T18:26:26.772Z,7.70
2023-02-24T18:28:54.024Z,7.70
2023-02-24T18:31:24.090Z,7.70
2023-02-24T18:33:51.883Z,7.60
2023-02-24T18:36:19.141Z,7.60
2023-02-24T18:38:46.104Z,7.60
2023-02-24T18:41:15.840Z,7.60
2023-02-24T18:43:43.248Z,7.60
2023-02-24T18:46:14.636Z,7.50
2023-02-24T18:48:44.438Z,7.50
2023-02-24T18:51:13.200Z,7.50
2023-02-24T18:53:40.217Z,7.50
2023-02-24T18:56:13.698Z,7.50
2023-02-24T18:58:40.994Z,7.40
2023-02-24T19:01:16.112Z,7.40
2023-02-24T19:03:43.600Z,7.40
2023-02-24T19:06:11.124Z,7.30
2023-02-24T19:08:39.074Z,7.30
2023-02-24T19:11:15.242Z,7.40
2023-02-24T19:13:43.043Z,7.30
2023-02-24T19:16:10.604Z,7.30
2023-02-24T19:18:37.991Z,7.20
2023-02-24T19:21:06.651Z,7.20
2023-02-24T19:23:34.044Z,7.20
2023-02-24T19:26:00.925Z,7.20
2023-02-24T19:28:27.914Z,7.20
2023-02-24T19:30:54.763Z,7.20
2023-02-24T19:33:21.721Z,7.20
2023-02-24T19:35:48.538Z,7.20
2023-02-24T19:38:18.055Z,7.10
2023-02-24T19:40:45.184Z,7.10
2023-02-24T19:43:13.662Z,7.10
2023-02-24T19:45:41.950Z,7.10
2023-02-24T19:48:10.147Z,7.10
2023-02-24T19:50:40.403Z,7.00
2023-02-24T19:53:07.684Z,6.90
2023-02-24T19:55:34.670Z,6.90
2023-02-24T19:58:01.382Z,6.90
2023-02-24T20:00:28.164Z,6.90
2023-02-24T20:02:54.901Z,6.90
2023-02-24T20:05:22.107Z,6.80
2023-02-24T20:07:48.850Z,6.70
2023-02-24T20:10:17.135Z,6.70
2023-02-24T20:12:44.845Z,6.60
2023-02-24T20:15:12.150Z,6.60
2023-02-24T20:17:39.019Z,6.40
2023-02-24T20:20:06.558Z,6.40
2023-02-24T20:22:33.233Z,6.30
2023-02-24T20:24:59.913Z,6.20
2023-02-24T20:27:26.629Z,6.20
2023-02-24T20:29:56.514Z,6.20
2023-02-24T20:32:23.810Z,6.10
2023-02-24T20:34:51.094Z,6.00
2023-02-24T20:37:18.060Z,6.00
2023-02-24T20:39:45.003Z,6.00
2023-02-24T20:42:12.334Z,6.00
2023-02-24T20:44:39.267Z,6.00
2023-02-24T20:47:06.034Z,6.10
2023-02-24T20:49:33.049Z,6.00
2023-02-24T20:51:59.859Z,6.00
2023-02-24T20:54:26.620Z,5.90
2023-02-24T20:56:53.356Z,5.90
2023-02-24T20:59:22.072Z,5.90
2023-02-24T21:01:50.289Z,5.80
2023-02-24T21:04:20.319Z,5.90
2023-02-24T21:06:48.043Z,5.80
2023-02-24T21:09:15.863Z,5.80
2023-02-24T21:11:42.867Z,5.80
2023-02-24T21:14:14.838Z,5.80
2023-02-24T21:16:41.525Z,5.80
2023-02-24T21:19:08.522Z,5.80
2023-02-24T21:21:35.226Z,5.90
2023-02-24T21:24:02.023Z,5.90
2023-02-24T21:26:29.268Z,5.80
2023-02-24T21:28:57.815Z,5.80
2023-02-24T21:31:25.765Z,5.80
2023-02-24T21:33:53.300Z,5.80
2023-02-24T21:36:23.601Z,5.80
2023-02-24T21:38:50.721Z,5.80
2023-02-24T21:41:19.434Z,5.80
2023-02-24T21:43:46.650Z,5.80
2023-02-24T21:46:15.656Z,5.70
2023-02-24T21:48:43.148Z,5.70
2023-02-24T21:51:12.103Z,5.70
2023-02-24T21:53:41.094Z,5.70
2023-02-24T21:56:16.300Z,5.70
2023-02-24T21:58:51.125Z,5.70
2023-02-24T22:01:21.208Z,5.60
2023-02-24T22:03:48.019Z,5.30
2023-02-24T22:06:17.400Z,5.30
2023-02-24T22:08:45.586Z,5.20
2023-02-24T22:11:15.271Z,5.10
2023-02-24T22:13:43.041Z,5.00
2023-02-24T22:16:13.711Z,5.00
2023-02-24T22:18:41.018Z,4.90
2023-02-24T22:21:09.765Z,4.70
2023-02-24T22:23:36.528Z,4.70
2023-02-24T22:26:09.192Z,4.70
2023-02-24T22:28:38.678Z,4.70
2023-02-24T22:31:06.625Z,4.60
2023-02-24T22:33:36.954Z,4.50
2023-02-24T22:36:09.864Z,4.50
2023-02-24T22:38:38.166Z,4.40
2023-02-24T22:41:08.392Z,4.40
2023-02-24T22:43:35.681Z,4.40
2023-02-24T22:46:05.661Z,4.40
2023-02-24T22:48:34.401Z,4.40
2023-02-24T22:51:03.555Z,4.40
2023-02-24T22:53:32.331Z,4.40
2023-02-24T22:55:59.768Z,4.40
2023-02-24T22:58:26.808Z,4.50
2023-02-24T23:00:54.682Z,4.50
2023-02-24T23:03:24.705Z,4.50
2023-02-24T23:05:56.531Z,4.50
2023-02-24T23:08:23.983Z,4.40
2023-02-24T23:10:51.031Z,4.50
2023-02-24T23:13:18.119Z,4.50
2023-02-24T23:15:44.932Z,4.50
2023-02-24T23:18:13.782Z,4.40
2023-02-24T23:20:41.091Z,4.50
2023-02-24T23:23:08.597Z,4.40
2023-02-24T23:25:35.920Z,4.40
2023-02-24T23:28:03.492Z,4.40
2023-02-24T23:30:30.166Z,4.40
2023-02-24T23:32:57.327Z,4.50
2023-02-24T23:35:24.320Z,4.50
2023-02-24T23:37:51.057Z,4.50
2023-02-24T23:40:17.966Z,4.40
2023-02-24T23:42:44.628Z,4.50
2023-02-24T23:45:11.499Z,4.40
2023-02-24T23:47:38.375Z,4.40
2023-02-24T23:50:05.848Z,4.40
2023-02-24T23:52:33.941Z,4.40
2023-02-24T23:55:00.618Z,4.40
2023-02-24T23:57:27.853Z,4.40
2023-02-24T23:59:54.708Z,4.40
